Paonia, Colorado
Current Conditions -  °F | °C
As of 7:15 PM on Monday 22 Dec 2014 (Local Time) from KAJZ Reporting Station
Overcast Overcast  
Wind Chill: 33°   Ceiling: 9000
Heat Index: 40°   Visibility: 10mi
Dew Point: 17°   Wind: 14mph
Humidity: 39%   Direction: 310°NW
Pressure: 29.9"   Gusts: 21mph
Location:  38.87°N, 107.59°W
Report Text: KAJZ 230215Z AUTO 31012G18KT 10SM BKN090 OVC110 05/M08 A2990 RMK AO2 T00461084
Loading
Personal Weather Stations






























Interactive Weather Map New forecast layout! Learn more

10-Day Weather Forecast

Advertisements
Track Severe Weather on mobile